Time;durP1;ratioP1;P1;durP2;ratioP2;P2;SDS_P1;SDS_P2;PMS_P1;PMS_P2;Temp;Humidity;BMP_temperature;BMP_pressure;BME280_temperature;BME280_humidity;BME280_pressure;Samples;Min_cycle;Max_cycle;Signal;HPM_P1;HPM_P2
2024/04/24 00:08:18;;;;;;;9.70;5.82;;;4.00;99.90;;;;;;5261467;27;20010;-57
2024/04/24 00:10:44;;;;;;;7.57;6.60;;;4.00;99.90;;;;;;5347292;26;20011;-51
2024/04/24 00:13:10;;;;;;;9.32;6.50;;;4.00;99.90;;;;;;5402667;26;20011;-54
2024/04/24 00:26:13;;;;;;;10.38;6.70;;;4.00;99.90;;;;;;5408729;26;19991;-50
2024/04/24 00:28:40;;;;;;;9.18;6.85;;;3.90;99.90;;;;;;5399166;26;19991;-51
2024/04/24 00:38:18;;;;;;;9.13;6.47;;;4.00;99.90;;;;;;5402835;26;20075;-53
2024/04/24 00:41:08;;;;;;;9.55;7.60;;;3.90;99.90;;;;;;5404954;26;20000;-52
2024/04/24 00:50:19;;;;;;;9.35;6.43;;;3.90;99.90;;;;;;5399682;26;20069;-50
2024/04/24 00:52:45;;;;;;;9.20;6.45;;;3.90;99.90;;;;;;5402782;26;20019;-52
2024/04/24 00:55:10;;;;;;;9.93;6.80;;;3.90;99.90;;;;;;5403793;26;20003;-51
2024/04/24 00:57:36;;;;;;;8.60;7.05;;;3.90;99.90;;;;;;5405341;26;20098;-51
2024/04/24 01:00:02;;;;;;;9.60;6.25;;;3.90;99.90;;;;;;5401525;26;20414;-52
2024/04/24 01:02:28;;;;;;;9.48;6.65;;;3.90;99.90;;;;;;5405697;26;20459;-51
2024/04/24 01:04:54;;;;;;;9.75;6.60;;;3.90;99.90;;;;;;5397889;26;20036;-53
2024/04/24 01:07:19;;;;;;;8.07;7.07;;;3.90;99.90;;;;;;5405886;26;20007;-51
2024/04/24 01:09:45;;;;;;;9.40;6.55;;;3.90;99.90;;;;;;5401011;26;19995;-51
2024/04/24 01:12:10;;;;;;;9.80;6.63;;;3.90;99.90;;;;;;5399693;26;20000;-53
2024/04/24 01:14:36;;;;;;;8.77;6.88;;;3.90;99.90;;;;;;5396864;26;20000;-51
2024/04/24 01:17:05;;;;;;;9.30;7.05;;;3.90;99.90;;;;;;5403188;26;19992;-53
2024/04/24 01:19:42;;;;;;;9.10;6.57;;;3.90;99.90;;;;;;5403239;26;20006;-52
2024/04/24 01:22:26;;;;;;;9.00;6.65;;;3.80;99.90;;;;;;5396006;26;20329;-51
2024/04/24 01:25:11;;;;;;;8.15;6.47;;;3.90;99.90;;;;;;5403907;26;20338;-50
2024/04/24 01:27:37;;;;;;;9.15;5.78;;;3.80;99.90;;;;;;5406680;26;20052;-51
2024/04/24 01:30:03;;;;;;;10.23;6.63;;;3.80;99.90;;;;;;5401773;26;20019;-51
2024/04/24 01:32:28;;;;;;;8.18;5.85;;;3.90;99.90;;;;;;5403708;26;20010;-53
2024/04/24 01:34:54;;;;;;;9.77;6.57;;;3.90;99.90;;;;;;5403509;26;20000;-51
2024/04/24 01:37:20;;;;;;;8.90;5.97;;;3.90;99.90;;;;;;5403051;26;20505;-50
2024/04/24 01:39:55;;;;;;;6.57;5.82;;;3.90;99.90;;;;;;5401793;26;20401;-51
2024/04/24 01:42:20;;;;;;;10.30;6.22;;;3.80;99.90;;;;;;5428416;26;20051;-51
2024/04/24 01:44:48;;;;;;;9.38;6.30;;;3.80;99.90;;;;;;5402793;26;20480;-50
2024/04/24 01:47:15;;;;;;;9.40;6.32;;;3.80;99.90;;;;;;5407270;26;20332;-51
2024/04/24 01:49:42;;;;;;;9.82;6.97;;;3.80;99.90;;;;;;5408871;26;19994;-53
2024/04/24 01:52:10;;;;;;;7.88;6.65;;;3.80;99.90;;;;;;5403332;26;20017;-51
2024/04/24 01:54:40;;;;;;;11.50;6.30;;;3.80;99.90;;;;;;5401783;26;20031;-50
2024/04/24 01:57:20;;;;;;;9.68;6.72;;;3.80;99.90;;;;;;5403631;26;20010;-52
2024/04/24 01:59:57;;;;;;;9.65;6.60;;;3.80;99.90;;;;;;5400988;26;20007;-52
2024/04/24 02:02:25;;;;;;;9.38;6.50;;;3.80;99.90;;;;;;5403123;26;20003;-51
2024/04/24 02:04:55;;;;;;;8.05;6.03;;;3.80;99.90;;;;;;5402350;26;20015;-52
2024/04/24 02:07:24;;;;;;;9.55;6.28;;;3.80;99.90;;;;;;5401757;26;19995;-50
2024/04/24 02:09:58;;;;;;;7.03;6.05;;;3.80;99.90;;;;;;5403180;26;20014;-51
2024/04/24 02:13:26;;;;;;;7.88;5.38;;;3.80;99.90;;;;;;5399714;26;19995;-52
2024/04/24 02:15:58;;;;;;;8.20;5.50;;;3.80;99.90;;;;;;5402433;26;19999;-52
2024/04/24 03:16:38;;;;;;;12.88;7.88;;;3.80;99.90;;;;;;5326247;26;20070;-53
2024/04/24 03:19:19;;;;;;;11.82;8.27;;;3.80;99.90;;;;;;5361641;26;20453;-52
2024/04/24 03:21:45;;;;;;;15.70;7.78;;;3.70;99.90;;;;;;5392116;26;20117;-53
2024/04/24 03:24:14;;;;;;;12.88;8.32;;;3.80;99.90;;;;;;5403046;26;20000;-50
2024/04/24 03:26:40;;;;;;;13.57;8.02;;;3.70;99.90;;;;;;5400503;26;19996;-51
2024/04/24 03:29:05;;;;;;;10.93;8.82;;;3.80;99.90;;;;;;5398974;26;20512;-51
2024/04/24 03:31:34;;;;;;;18.58;8.77;;;3.80;99.90;;;;;;5397963;26;20195;-55
2024/04/24 03:34:00;;;;;;;11.77;8.23;;;3.80;99.90;;;;;;5399707;26;20032;-52
2024/04/24 03:36:25;;;;;;;12.30;6.93;;;3.80;99.90;;;;;;5400394;26;20008;-53
2024/04/24 03:38:51;;;;;;;14.05;8.27;;;3.70;99.90;;;;;;5401046;26;20466;-51
2024/04/24 03:41:16;;;;;;;10.75;8.00;;;3.70;99.90;;;;;;5400267;26;20023;-51
2024/04/24 03:43:42;;;;;;;10.63;6.72;;;3.70;99.90;;;;;;5424827;26;20082;-55
2024/04/24 03:46:08;;;;;;;9.65;7.40;;;3.70;99.90;;;;;;5401998;26;19997;-53
2024/04/24 03:48:33;;;;;;;12.38;7.50;;;3.70;99.90;;;;;;5405052;26;20008;-53
2024/04/24 03:50:59;;;;;;;11.27;6.95;;;3.70;99.90;;;;;;5402851;26;20003;-52
2024/04/24 03:53:24;;;;;;;9.27;6.88;;;3.70;99.90;;;;;;5404666;26;20401;-55
2024/04/24 03:55:50;;;;;;;10.55;6.88;;;3.70;99.90;;;;;;5399588;26;20022;-53
2024/04/24 03:58:16;;;;;;;8.80;6.40;;;3.70;99.90;;;;;;5402296;26;20462;-52
2024/04/24 04:00:41;;;;;;;11.02;7.22;;;3.70;99.90;;;;;;5401308;26;20014;-52
2024/04/24 04:03:08;;;;;;;8.05;6.70;;;3.70;99.90;;;;;;5396347;26;20077;-51
2024/04/24 04:05:34;;;;;;;10.55;6.70;;;3.70;99.90;;;;;;5399695;26;19999;-51
2024/04/24 04:08:00;;;;;;;6.03;4.20;;;3.70;99.90;;;;;;5394551;26;20085;-51
2024/04/24 04:10:26;;;;;;;7.00;3.80;;;3.70;99.90;;;;;;5407924;26;20043;-51
2024/04/24 04:12:51;;;;;;;7.05;4.00;;;3.70;99.90;;;;;;5402472;26;20691;-54
2024/04/24 04:15:17;;;;;;;9.75;3.65;;;3.60;99.90;;;;;;5399945;26;20006;-54
2024/04/24 04:17:46;;;;;;;10.38;3.55;;;3.70;99.90;;;;;;5406649;26;20028;-52
2024/04/24 04:20:12;;;;;;;7.15;2.85;;;3.60;99.90;;;;;;5405188;26;20043;-53
2024/04/24 04:22:38;;;;;;;7.22;3.08;;;3.60;99.90;;;;;;5397067;26;20011;-51
2024/04/24 04:25:04;;;;;;;4.25;2.53;;;3.60;99.90;;;;;;5402336;26;19996;-55
2024/04/24 04:27:31;;;;;;;2.60;2.25;;;3.60;99.90;;;;;;5405653;26;20500;-51
2024/04/24 04:29:59;;;;;;;5.28;2.75;;;3.60;99.90;;;;;;5400291;26;20011;-55
2024/04/24 04:32:25;;;;;;;4.18;2.83;;;3.60;99.90;;;;;;5405554;26;20010;-51
2024/04/24 04:34:51;;;;;;;4.65;3.03;;;3.60;99.90;;;;;;5399552;26;20039;-50
2024/04/24 04:37:17;;;;;;;4.32;3.33;;;3.60;99.90;;;;;;5402295;26;20512;-53
2024/04/24 04:39:43;;;;;;;6.60;3.70;;;3.70;99.90;;;;;;5404025;26;20011;-53
2024/04/24 04:42:08;;;;;;;7.70;4.20;;;3.70;99.90;;;;;;5397145;26;20348;-52
2024/04/24 04:44:34;;;;;;;8.68;5.13;;;3.70;99.90;;;;;;5403686;26;20070;-52
2024/04/24 04:46:59;;;;;;;5.68;4.38;;;3.70;99.90;;;;;;5402591;26;19999;-54
2024/04/24 04:49:25;;;;;;;11.15;4.47;;;3.80;99.90;;;;;;5398735;26;20038;-53
2024/04/24 04:51:51;;;;;;;6.72;4.18;;;3.80;99.90;;;;;;5403709;26;20524;-54
2024/04/24 04:54:16;;;;;;;7.85;4.28;;;3.80;99.90;;;;;;5400458;26;19999;-54
2024/04/24 04:56:42;;;;;;;9.30;5.25;;;3.80;99.90;;;;;;5400531;26;20010;-53
2024/04/24 04:59:07;;;;;;;7.47;5.20;;;3.80;99.90;;;;;;5399241;26;20489;-51
2024/04/24 05:01:33;;;;;;;8.45;5.10;;;3.80;99.90;;;;;;5398789;26;20010;-50
2024/04/24 05:03:59;;;;;;;7.88;5.05;;;3.90;99.90;;;;;;5405157;26;19996;-50
2024/04/24 05:06:26;;;;;;;7.20;4.90;;;3.90;99.90;;;;;;5403651;26;20054;-51
2024/04/24 05:08:51;;;;;;;12.50;5.50;;;3.90;99.90;;;;;;5400405;26;20140;-52
2024/04/24 05:11:17;;;;;;;9.23;5.63;;;3.90;99.90;;;;;;5401304;26;20010;-55
2024/04/24 05:13:42;;;;;;;17.70;6.00;;;3.90;99.90;;;;;;5402991;26;20510;-54
2024/04/24 05:16:11;;;;;;;7.13;5.22;;;4.00;99.90;;;;;;5401622;26;20438;-54
2024/04/24 05:18:40;;;;;;;7.57;5.13;;;4.00;99.90;;;;;;5399900;26;20010;-51
2024/04/24 05:21:09;;;;;;;6.78;5.35;;;4.00;99.90;;;;;;5402416;26;19999;-54
2024/04/24 05:23:34;;;;;;;8.07;5.68;;;4.00;99.90;;;;;;5401791;26;20707;-55
2024/04/24 05:31:32;;;;;;;8.48;6.05;;;4.00;99.90;;;;;;5397100;26;20018;-52
2024/04/24 05:33:58;;;;;;;11.15;7.05;;;4.00;99.90;;;;;;5401347;26;20008;-53
2024/04/24 05:36:23;;;;;;;12.45;7.18;;;4.10;99.90;;;;;;5398479;26;20007;-54
2024/04/24 05:38:49;;;;;;;13.18;8.20;;;4.10;99.90;;;;;;5398975;26;20414;-54
2024/04/24 05:41:14;;;;;;;11.05;7.70;;;4.20;99.90;;;;;;5399880;26;20004;-50
2024/04/24 05:43:40;;;;;;;9.32;7.05;;;4.20;99.90;;;;;;5395195;26;20003;-51
2024/04/24 05:46:06;;;;;;;13.25;7.90;;;4.20;99.90;;;;;;5400446;26;20410;-54
2024/04/24 05:48:31;;;;;;;11.23;8.05;;;4.20;99.90;;;;;;5400547;26;19999;-54
2024/04/24 05:50:57;;;;;;;13.32;9.52;;;4.20;99.90;;;;;;5402022;26;20074;-54
2024/04/24 05:53:22;;;;;;;9.23;7.85;;;4.20;99.90;;;;;;5402970;26;20077;-53
2024/04/24 05:55:48;;;;;;;11.40;8.82;;;4.20;99.90;;;;;;5402178;26;19996;-51
2024/04/24 05:58:13;;;;;;;11.98;8.25;;;4.30;99.90;;;;;;5399816;26;20003;-52
2024/04/24 06:00:39;;;;;;;14.20;10.00;;;4.30;99.90;;;;;;5402347;26;19999;-55
2024/04/24 06:03:06;;;;;;;14.65;8.88;;;4.30;99.90;;;;;;5401147;26;20014;-53
2024/04/24 06:05:32;;;;;;;11.30;7.40;;;4.40;99.90;;;;;;5404652;26;20071;-51
2024/04/24 06:07:58;;;;;;;12.73;8.68;;;4.40;99.90;;;;;;5400778;26;20023;-53
2024/04/24 06:10:24;;;;;;;11.68;8.43;;;4.50;99.90;;;;;;5399342;26;19999;-52
2024/04/24 06:12:49;;;;;;;13.80;8.35;;;4.50;99.90;;;;;;5398878;26;20014;-50
2024/04/24 06:15:15;;;;;;;11.90;8.00;;;4.50;99.90;;;;;;5400261;26;20039;-50
2024/04/24 06:17:40;;;;;;;13.95;8.52;;;4.50;99.90;;;;;;5401843;26;20007;-54
2024/04/24 06:20:07;;;;;;;12.82;7.47;;;4.60;99.90;;;;;;5395883;26;19996;-53
2024/04/24 06:22:32;;;;;;;12.75;7.70;;;4.60;99.90;;;;;;5401203;26;20043;-55
2024/04/24 06:24:58;;;;;;;11.02;6.38;;;4.60;99.90;;;;;;5400971;26;20011;-54
2024/04/24 06:27:24;;;;;;;10.52;5.97;;;4.60;99.90;;;;;;5399471;26;20015;-55
2024/04/24 06:29:49;;;;;;;8.73;5.95;;;4.70;99.90;;;;;;5402928;26;20014;-54
2024/04/24 06:32:15;;;;;;;7.97;6.07;;;4.70;99.90;;;;;;5404154;26;20007;-53
2024/04/24 06:34:41;;;;;;;9.68;6.78;;;4.70;99.90;;;;;;5403556;26;20026;-54
2024/04/24 06:37:07;;;;;;;9.90;5.25;;;4.70;99.90;;;;;;5398549;26;19991;-54
2024/04/24 06:39:33;;;;;;;10.43;7.22;;;4.70;99.90;;;;;;5400056;26;20004;-53
2024/04/24 06:41:58;;;;;;;8.50;5.78;;;4.70;99.90;;;;;;5405532;26;20000;-55
2024/04/24 06:44:24;;;;;;;8.68;5.63;;;4.70;99.90;;;;;;5399776;26;20019;-52
2024/04/24 06:46:49;;;;;;;7.72;5.72;;;4.70;99.90;;;;;;5401937;26;19999;-53
2024/04/24 06:49:15;;;;;;;6.93;5.95;;;4.70;99.90;;;;;;5401075;26;20055;-51
2024/04/24 06:51:40;;;;;;;7.28;5.63;;;4.70;99.90;;;;;;5401300;26;22435;-51
2024/04/24 06:54:06;;;;;;;8.95;5.47;;;4.70;99.90;;;;;;5398785;26;20660;-51
2024/04/24 06:56:32;;;;;;;8.55;6.22;;;4.80;99.90;;;;;;5404697;26;20659;-54
2024/04/24 06:58:57;;;;;;;11.35;5.70;;;4.80;99.90;;;;;;5394680;26;19996;-51
2024/04/24 07:01:23;;;;;;;7.10;4.88;;;4.80;99.90;;;;;;5399147;26;20004;-53
2024/04/24 07:03:48;;;;;;;8.82;5.05;;;4.80;99.90;;;;;;5398319;26;20501;-54
2024/04/24 07:06:14;;;;;;;7.63;5.00;;;4.80;99.90;;;;;;5397566;26;20519;-55
2024/04/24 07:08:40;;;;;;;5.47;3.50;;;4.80;99.90;;;;;;5400133;26;20010;-53
2024/04/24 07:11:06;;;;;;;5.72;3.78;;;4.80;99.90;;;;;;5403080;26;20447;-50
2024/04/24 07:13:31;;;;;;;4.78;3.92;;;4.80;99.90;;;;;;5403673;26;20039;-51
2024/04/24 07:15:57;;;;;;;7.75;4.13;;;4.80;99.90;;;;;;5403350;26;20010;-50
2024/04/24 07:18:23;;;;;;;7.35;4.53;;;4.80;99.90;;;;;;5398775;26;20000;-57
2024/04/24 07:20:48;;;;;;;6.93;3.78;;;4.80;99.90;;;;;;5404280;26;19995;-52
2024/04/24 07:23:15;;;;;;;4.43;3.70;;;4.80;99.90;;;;;;5404111;26;20737;-53
2024/04/24 07:25:41;;;;;;;5.80;3.30;;;4.80;99.90;;;;;;5402769;26;19999;-53
2024/04/24 07:28:06;;;;;;;5.63;3.33;;;4.80;99.90;;;;;;5400502;26;20398;-50
2024/04/24 07:30:32;;;;;;;3.63;2.65;;;4.70;99.90;;;;;;5400817;26;20014;-52
2024/04/24 07:32:57;;;;;;;3.47;2.58;;;4.70;99.90;;;;;;5399705;26;20007;-53
2024/04/24 07:35:23;;;;;;;4.03;2.40;;;4.70;99.90;;;;;;5404479;26;20018;-54
2024/04/24 07:37:49;;;;;;;4.75;2.72;;;4.70;99.90;;;;;;5397825;26;20463;-52
2024/04/24 07:40:14;;;;;;;3.88;2.13;;;4.80;99.90;;;;;;5400247;26;21204;-51
2024/04/24 07:42:40;;;;;;;8.45;2.83;;;4.90;99.90;;;;;;5400018;26;20007;-51
2024/04/24 07:45:07;;;;;;;3.10;2.83;;;4.90;99.90;;;;;;5403533;26;19999;-52
2024/04/24 07:47:32;;;;;;;4.07;2.45;;;4.90;99.90;;;;;;5400346;26;20578;-54
2024/04/24 07:49:58;;;;;;;3.42;2.15;;;4.90;99.90;;;;;;5398768;26;20077;-52
2024/04/24 07:52:23;;;;;;;4.70;2.25;;;4.90;99.90;;;;;;5401543;26;20324;-51
2024/04/24 07:54:49;;;;;;;3.08;2.35;;;4.90;99.90;;;;;;5400547;26;20727;-50
2024/04/24 07:57:14;;;;;;;2.92;2.50;;;4.90;99.90;;;;;;5403266;26;20007;-50
2024/04/24 07:59:40;;;;;;;3.28;2.97;;;4.90;99.90;;;;;;5396199;26;20003;-52
2024/04/24 08:02:05;;;;;;;3.97;3.03;;;4.90;99.90;;;;;;5404365;26;20000;-49
2024/04/24 08:04:31;;;;;;;3.50;2.65;;;4.90;99.90;;;;;;5398064;26;20014;-51
2024/04/24 08:06:56;;;;;;;3.33;2.92;;;4.90;99.90;;;;;;5390918;26;19999;-49
2024/04/24 08:09:22;;;;;;;2.80;2.53;;;4.90;99.90;;;;;;5399992;26;19995;-53
2024/04/24 08:11:47;;;;;;;5.60;3.25;;;4.90;99.90;;;;;;5397071;26;20010;-49
2024/04/24 08:14:13;;;;;;;3.25;2.95;;;5.00;99.90;;;;;;5398211;26;20012;-50
2024/04/24 08:16:39;;;;;;;4.38;2.83;;;5.00;99.90;;;;;;5399644;26;20015;-51
2024/04/24 08:19:04;;;;;;;4.07;2.97;;;5.00;99.90;;;;;;5399416;26;20012;-52
2024/04/24 08:21:30;;;;;;;6.43;4.05;;;5.00;99.90;;;;;;5397881;26;20425;-54
2024/04/24 08:23:55;;;;;;;7.60;4.00;;;5.00;99.90;;;;;;5399087;26;20009;-51
2024/04/24 08:26:21;;;;;;;4.07;3.67;;;5.00;99.90;;;;;;5402344;26;20083;-52
2024/04/24 08:28:47;;;;;;;5.47;3.60;;;5.10;99.90;;;;;;5402001;26;19992;-52
2024/04/24 08:31:13;;;;;;;6.38;4.03;;;5.10;99.90;;;;;;5403353;26;20415;-52
2024/04/24 08:33:38;;;;;;;4.28;3.55;;;5.10;99.90;;;;;;5400032;26;19995;-53
2024/04/24 08:36:06;;;;;;;5.50;3.83;;;5.20;99.90;;;;;;5398559;26;20000;-49
2024/04/24 08:38:32;;;;;;;4.35;2.90;;;5.30;99.90;;;;;;5392750;26;20018;-50
2024/04/24 08:41:05;;;;;;;3.58;3.08;;;5.40;99.90;;;;;;5402707;26;20031;-49
2024/04/24 08:43:31;;;;;;;3.78;2.80;;;5.40;99.90;;;;;;5392730;26;20004;-49
2024/04/24 08:46:02;;;;;;;4.32;3.55;;;5.40;99.90;;;;;;5403068;26;20467;-49
2024/04/24 08:48:36;;;;;;;4.68;4.00;;;5.50;99.90;;;;;;5397888;26;19992;-51
2024/04/24 08:51:02;;;;;;;4.53;3.45;;;5.50;99.90;;;;;;5403811;26;19992;-50
2024/04/24 08:53:31;;;;;;;5.75;3.75;;;5.50;99.90;;;;;;5397494;26;19995;-50
2024/04/24 08:56:02;;;;;;;5.97;4.03;;;5.50;99.90;;;;;;5404565;26;19996;-52
2024/04/24 08:58:31;;;;;;;5.55;3.53;;;5.50;99.90;;;;;;5397342;26;20075;-50
2024/04/24 09:01:04;;;;;;;7.28;4.60;;;5.50;99.90;;;;;;5404703;26;20011;-51
2024/04/24 09:03:34;;;;;;;4.47;4.07;;;5.50;99.90;;;;;;5399689;26;20000;-48
2024/04/24 09:06:02;;;;;;;7.07;5.18;;;5.50;99.90;;;;;;5403950;26;20032;-52
2024/04/24 09:08:30;;;;;;;5.53;4.63;;;5.50;99.90;;;;;;5393620;26;20657;-53
2024/04/24 09:10:55;;;;;;;5.82;4.90;;;5.50;99.90;;;;;;5400458;26;20018;-48
2024/04/24 09:13:22;;;;;;;5.10;4.45;;;5.50;99.90;;;;;;5399587;26;19999;-50
2024/04/24 09:15:49;;;;;;;7.25;5.20;;;5.50;99.90;;;;;;5402125;26;20003;-51
2024/04/24 09:18:15;;;;;;;7.32;5.00;;;5.50;99.90;;;;;;5399863;26;20031;-50
2024/04/24 09:20:43;;;;;;;6.18;4.75;;;5.60;99.90;;;;;;5399648;26;20022;-49
2024/04/24 09:23:14;;;;;;;8.10;5.30;;;5.50;99.90;;;;;;5396653;26;20004;-48
2024/04/24 09:25:40;;;;;;;5.30;4.80;;;5.40;99.90;;;;;;5403686;26;20146;-48
2024/04/24 09:28:05;;;;;;;6.60;4.95;;;5.50;99.90;;;;;;5401308;26;20046;-49
2024/04/24 09:30:32;;;;;;;4.70;3.92;;;5.50;99.90;;;;;;5393284;26;20003;-50
2024/04/24 09:32:57;;;;;;;5.25;4.32;;;5.50;99.90;;;;;;5396846;26;19995;-49
2024/04/24 09:35:23;;;;;;;4.93;4.18;;;5.50;99.90;;;;;;5396564;26;20043;-49
2024/04/24 09:37:51;;;;;;;5.88;4.38;;;5.50;99.90;;;;;;5405521;26;20015;-49
2024/04/24 09:40:17;;;;;;;6.50;4.32;;;5.60;99.90;;;;;;5403537;26;20042;-49
2024/04/24 09:42:45;;;;;;;4.22;3.63;;;5.60;99.90;;;;;;5404985;26;20026;-48
2024/04/24 09:45:10;;;;;;;4.18;3.63;;;5.70;99.90;;;;;;5403703;26;20485;-52
2024/04/24 09:47:43;;;;;;;5.78;4.10;;;5.80;99.90;;;;;;5407176;26;19999;-50
2024/04/24 09:50:09;;;;;;;5.55;3.63;;;5.80;99.90;;;;;;5396313;26;20256;-48
2024/04/24 09:52:35;;;;;;;4.82;3.97;;;5.90;99.90;;;;;;5397466;26;19995;-49
2024/04/24 09:55:02;;;;;;;3.65;3.15;;;5.90;99.90;;;;;;5402710;26;20111;-51
2024/04/24 09:57:33;;;;;;;5.40;3.45;;;5.90;99.90;;;;;;5403606;26;20046;-47
2024/04/24 10:00:00;;;;;;;4.85;3.58;;;6.00;99.90;;;;;;5400739;26;20078;-47
2024/04/24 10:02:31;;;;;;;4.88;3.22;;;5.90;99.90;;;;;;5398663;26;19999;-48
2024/04/24 10:05:15;;;;;;;3.60;2.90;;;5.90;99.90;;;;;;5408099;26;20403;-48
2024/04/24 10:07:49;;;;;;;3.97;2.95;;;5.90;99.90;;;;;;5397771;26;20034;-48
2024/04/24 10:10:17;;;;;;;3.83;3.28;;;5.90;99.90;;;;;;5397622;26;19996;-48
2024/04/24 10:12:45;;;;;;;4.07;3.15;;;6.00;99.90;;;;;;5399475;26;20054;-49
2024/04/24 10:15:22;;;;;;;5.45;2.78;;;6.00;99.90;;;;;;5402403;26;20000;-49
2024/04/24 10:17:50;;;;;;;2.65;2.38;;;6.10;99.90;;;;;;5404102;26;20339;-48
2024/04/24 10:20:17;;;;;;;3.03;1.67;;;6.30;99.90;;;;;;5403356;26;20015;-48
2024/04/24 10:22:44;;;;;;;2.08;1.42;;;6.50;99.90;;;;;;5401917;26;19995;-50
2024/04/24 10:25:12;;;;;;;3.40;1.95;;;6.80;99.90;;;;;;5399430;26;20047;-47
2024/04/24 10:27:40;;;;;;;2.55;2.25;;;6.80;99.90;;;;;;5404895;26;20363;-48
2024/04/24 10:30:07;;;;;;;4.50;2.55;;;6.80;99.90;;;;;;5403512;26;20064;-48
2024/04/24 10:32:33;;;;;;;4.72;3.33;;;7.00;99.90;;;;;;5400013;26;20014;-51
2024/04/24 10:35:00;;;;;;;3.60;3.20;;;7.10;99.90;;;;;;5398939;26;20024;-50
2024/04/24 10:37:25;;;;;;;4.28;3.08;;;7.10;99.90;;;;;;5407246;26;20081;-48
2024/04/24 10:39:51;;;;;;;5.68;3.70;;;7.20;99.90;;;;;;5393931;26;20058;-50
2024/04/24 10:42:18;;;;;;;5.20;3.85;;;7.40;99.90;;;;;;5406024;26;20000;-52
2024/04/24 10:44:44;;;;;;;3.95;3.55;;;7.40;99.90;;;;;;5400300;26;19996;-49
2024/04/24 10:47:11;;;;;;;5.03;3.00;;;7.40;99.90;;;;;;5407849;26;19991;-49
2024/04/24 10:49:40;;;;;;;3.38;2.50;;;7.50;99.90;;;;;;5404526;26;20078;-52
2024/04/24 10:52:06;;;;;;;3.22;2.65;;;7.60;99.90;;;;;;5404625;26;20172;-51
2024/04/24 10:54:32;;;;;;;2.25;2.05;;;7.60;99.90;;;;;;5396626;26;20003;-53
2024/04/24 10:56:58;;;;;;;5.20;2.20;;;7.60;99.90;;;;;;5403108;26;20003;-51
2024/04/24 10:59:35;;;;;;;2.75;1.73;;;7.70;99.90;;;;;;5404323;26;19999;-49
2024/04/24 11:02:17;;;;;;;1.50;1.40;;;7.70;99.90;;;;;;5397237;26;20014;-49
2024/04/24 11:04:43;;;;;;;1.60;1.50;;;7.90;99.90;;;;;;5398703;26;20008;-51
2024/04/24 11:07:09;;;;;;;2.10;1.52;;;8.00;99.90;;;;;;5405213;26;20072;-50
2024/04/24 11:09:38;;;;;;;2.67;1.95;;;8.00;99.90;;;;;;5399114;26;19996;-52
2024/04/24 11:12:07;;;;;;;2.17;1.55;;;8.00;99.90;;;;;;5403158;26;20011;-51
2024/04/24 11:14:40;;;;;;;2.42;1.60;;;7.90;99.90;;;;;;5408021;26;20008;-51
2024/04/24 11:17:06;;;;;;;2.50;1.92;;;8.00;99.90;;;;;;5404415;26;20000;-52
2024/04/24 11:19:32;;;;;;;2.10;1.60;;;8.10;99.90;;;;;;5402779;26;19999;-54
2024/04/24 11:21:58;;;;;;;6.32;2.33;;;8.20;99.90;;;;;;5401519;26;20003;-52
2024/04/24 11:24:31;;;;;;;2.25;1.67;;;8.40;99.90;;;;;;5402541;26;19999;-49
2024/04/24 11:26:58;;;;;;;3.42;2.38;;;8.50;99.90;;;;;;5401352;26;19999;-48
2024/04/24 11:29:27;;;;;;;2.45;1.85;;;8.60;99.90;;;;;;5404832;26;20004;-52
2024/04/24 11:31:54;;;;;;;3.65;2.28;;;8.70;99.90;;;;;;5400567;26;20017;-48
2024/04/24 11:34:21;;;;;;;3.88;1.85;;;8.70;99.90;;;;;;5406639;26;20022;-51
2024/04/24 11:36:47;;;;;;;2.28;2.00;;;8.70;99.90;;;;;;5406231;26;19999;-51
2024/04/24 11:39:16;;;;;;;2.33;1.52;;;8.70;99.90;;;;;;5401434;26;20515;-49
2024/04/24 11:41:42;;;;;;;1.73;1.33;;;8.70;99.90;;;;;;5392382;26;19995;-53
2024/04/24 11:44:08;;;;;;;2.17;1.65;;;8.80;99.90;;;;;;5399248;26;20463;-49
2024/04/24 11:46:35;;;;;;;1.77;0.90;;;8.80;99.90;;;;;;5400201;26;19995;-50
2024/04/24 11:49:01;;;;;;;1.58;0.90;;;8.80;99.90;;;;;;5394831;26;20020;-49
2024/04/24 11:51:27;;;;;;;1.33;1.23;;;8.80;99.90;;;;;;5399274;26;20014;-49
2024/04/24 11:53:53;;;;;;;2.83;1.25;;;8.60;99.90;;;;;;5405857;26;20747;-51
2024/04/24 11:56:23;;;;;;;1.33;1.20;;;8.50;99.90;;;;;;5400566;26;20499;-49
2024/04/24 11:58:49;;;;;;;2.88;1.30;;;8.30;99.90;;;;;;5402606;26;20032;-54
2024/04/24 12:01:16;;;;;;;2.97;1.50;;;8.20;99.90;;;;;;5402064;26;20010;-48
2024/04/24 12:03:46;;;;;;;2.03;1.20;;;8.20;99.90;;;;;;5404984;26;20459;-50
2024/04/24 12:06:12;;;;;;;3.15;1.80;;;8.00;99.90;;;;;;5402896;26;20010;-50
2024/04/24 12:08:37;;;;;;;2.22;1.85;;;8.00;99.90;;;;;;5400994;26;20790;-48
2024/04/24 12:11:03;;;;;;;2.45;1.40;;;7.90;99.90;;;;;;5405421;26;20193;-53
2024/04/24 12:13:30;;;;;;;4.30;1.85;;;7.80;99.90;;;;;;5402880;26;20443;-52
2024/04/24 12:15:56;;;;;;;1.58;1.48;;;7.70;99.90;;;;;;5401555;26;20014;-49
2024/04/24 12:18:22;;;;;;;3.28;1.67;;;7.60;99.90;;;;;;5402850;26;20458;-52
2024/04/24 12:20:48;;;;;;;2.95;1.67;;;7.50;99.90;;;;;;5400603;26;19996;-52
2024/04/24 12:23:13;;;;;;;2.47;1.75;;;7.40;99.90;;;;;;5407842;26;20454;-50
2024/04/24 12:25:39;;;;;;;3.65;2.00;;;7.40;99.90;;;;;;5402100;26;19996;-57
2024/04/24 12:28:05;;;;;;;2.72;1.90;;;7.40;99.90;;;;;;5406937;26;20008;-52
2024/04/24 12:30:31;;;;;;;2.05;1.88;;;7.40;99.90;;;;;;5400112;26;20013;-48
2024/04/24 12:32:57;;;;;;;3.38;1.98;;;7.40;99.90;;;;;;5406364;26;20004;-50
2024/04/24 12:35:22;;;;;;;2.13;1.73;;;7.50;99.90;;;;;;5401242;26;20611;-49
2024/04/24 12:37:48;;;;;;;5.30;2.13;;;7.50;99.90;;;;;;5401966;26;20004;-52
2024/04/24 12:40:15;;;;;;;2.00;1.88;;;7.60;99.90;;;;;;5400877;26;20015;-50
2024/04/24 12:42:41;;;;;;;4.25;2.35;;;7.60;99.90;;;;;;5404475;26;20000;-53
2024/04/24 12:45:07;;;;;;;1.95;1.80;;;7.70;99.90;;;;;;5400761;26;20014;-49
2024/04/24 12:47:33;;;;;;;3.50;2.20;;;7.70;99.90;;;;;;5397867;26;20015;-49
2024/04/24 12:49:59;;;;;;;3.97;2.00;;;7.70;99.90;;;;;;5397229;26;20406;-49
2024/04/24 12:52:25;;;;;;;2.50;1.80;;;7.60;99.90;;;;;;5411998;26;20000;-49
2024/04/24 12:54:50;;;;;;;1.70;1.58;;;7.50;99.90;;;;;;5406975;26;20010;-51
2024/04/24 12:57:16;;;;;;;1.42;1.33;;;7.50;99.90;;;;;;5403771;26;20007;-50
2024/04/24 12:59:41;;;;;;;3.10;1.70;;;7.40;99.90;;;;;;5401624;26;19999;-52
2024/04/24 13:02:08;;;;;;;2.58;1.30;;;7.40;99.90;;;;;;5401108;26;20039;-50
2024/04/24 13:04:34;;;;;;;1.27;1.00;;;7.40;99.90;;;;;;5402363;26;19996;-53
2024/04/24 13:06:59;;;;;;;1.05;0.82;;;7.40;99.90;;;;;;5399095;26;20039;-51
2024/04/24 13:09:25;;;;;;;1.58;0.57;;;7.40;99.90;;;;;;5405432;26;20500;-50
2024/04/24 13:11:51;;;;;;;2.90;1.23;;;7.50;99.90;;;;;;5406072;26;20476;-49
2024/04/24 13:14:16;;;;;;;2.67;0.98;;;7.60;99.90;;;;;;5401942;26;20000;-48
2024/04/24 13:16:42;;;;;;;2.83;0.80;;;7.80;99.90;;;;;;5396387;26;20003;-54
2024/04/24 13:19:08;;;;;;;2.45;1.10;;;7.90;99.90;;;;;;5394140;26;20037;-50
2024/04/24 13:21:33;;;;;;;1.85;1.10;;;8.00;99.90;;;;;;5402588;26;20015;-49
2024/04/24 13:23:59;;;;;;;2.47;1.40;;;8.20;99.90;;;;;;5400665;26;20097;-49
2024/04/24 13:26:25;;;;;;;1.33;1.00;;;8.50;99.90;;;;;;5402319;26;20011;-50
2024/04/24 13:28:50;;;;;;;1.08;0.70;;;8.60;99.90;;;;;;5406811;26;19996;-51
2024/04/24 13:31:16;;;;;;;2.85;1.30;;;8.60;99.90;;;;;;5406470;26;20088;-48
2024/04/24 13:33:42;;;;;;;0.95;0.82;;;8.70;99.90;;;;;;5406414;26;20014;-49
2024/04/24 13:36:07;;;;;;;1.95;1.00;;;8.70;99.90;;;;;;5401638;26;19999;-50
2024/04/24 13:38:33;;;;;;;1.85;0.82;;;8.80;99.90;;;;;;5402042;26;20080;-50
2024/04/24 13:41:02;;;;;;;1.38;1.10;;;8.80;99.90;;;;;;5397013;26;19996;-53
2024/04/24 13:43:28;;;;;;;0.90;0.90;;;8.70;99.90;;;;;;5402747;26;20018;-49
2024/04/24 13:45:54;;;;;;;4.35;1.60;;;8.70;99.90;;;;;;5402110;26;19996;-50
2024/04/24 13:48:19;;;;;;;2.00;0.98;;;8.60;99.90;;;;;;5397619;26;20072;-53
2024/04/24 13:50:45;;;;;;;1.20;1.10;;;8.50;99.90;;;;;;5396052;26;20000;-50
2024/04/24 13:53:12;;;;;;;1.65;1.10;;;8.60;99.90;;;;;;5404091;26;20075;-53
2024/04/24 13:55:37;;;;;;;1.00;0.90;;;8.40;99.90;;;;;;5396555;26;20478;-53
2024/04/24 13:58:03;;;;;;;1.30;1.00;;;8.30;99.90;;;;;;5398677;26;20010;-52
2024/04/24 14:00:29;;;;;;;1.85;1.05;;;8.20;99.90;;;;;;5400142;26;20458;-51
2024/04/24 14:02:54;;;;;;;1.88;1.17;;;8.10;99.90;;;;;;5398588;26;20036;-51
2024/04/24 14:05:22;;;;;;;2.53;1.10;;;8.20;99.90;;;;;;5402354;26;20491;-52
2024/04/24 14:07:48;;;;;;;0.98;0.88;;;8.30;99.90;;;;;;5405240;26;20015;-48
2024/04/24 14:10:15;;;;;;;1.35;1.08;;;8.30;99.90;;;;;;5400922;26;20036;-52
2024/04/24 14:12:40;;;;;;;1.75;0.85;;;8.50;99.90;;;;;;5399091;26;19992;-52
2024/04/24 14:15:09;;;;;;;2.45;0.90;;;8.60;99.90;;;;;;5395767;26;20018;-49
2024/04/24 14:17:37;;;;;;;1.40;0.95;;;8.70;99.90;;;;;;5399803;26;20058;-52
2024/04/24 14:20:04;;;;;;;0.95;0.93;;;8.60;99.90;;;;;;5400954;26;20000;-52
2024/04/24 14:22:29;;;;;;;1.98;1.25;;;8.60;99.90;;;;;;5398673;26;20321;-48
2024/04/24 14:24:55;;;;;;;1.10;0.77;;;8.70;99.90;;;;;;5399940;26;20000;-48
2024/04/24 14:27:20;;;;;;;1.65;1.17;;;8.70;99.90;;;;;;5402164;26;20480;-49
2024/04/24 14:29:48;;;;;;;0.70;0.70;;;8.90;99.90;;;;;;5398315;26;20018;-53